createdAt,value
2022-08-22T00:01:17.849Z,45.07
2022-08-22T00:06:33.977Z,45.07
2022-08-22T00:11:26.909Z,45.17
2022-08-22T00:16:26.819Z,45.41
2022-08-22T00:21:26.756Z,45.26
2022-08-22T00:26:26.701Z,45.41
2022-08-22T00:31:26.657Z,45.51
2022-08-22T00:36:26.567Z,45.65
2022-08-22T00:41:26.499Z,45.56
2022-08-22T00:46:26.435Z,45.65
2022-08-22T00:51:26.373Z,45.65
2022-08-22T00:56:26.296Z,45.90
2022-08-22T01:01:26.265Z,45.75
2022-08-22T01:06:26.153Z,46.00
2022-08-22T01:11:26.132Z,45.85
2022-08-22T01:16:26.039Z,46.00
2022-08-22T01:21:25.984Z,45.95
2022-08-22T01:26:26.818Z,46.15
2022-08-22T01:31:25.827Z,46.46
2022-08-22T01:36:25.761Z,46.46
2022-08-22T01:41:25.708Z,46.77
2022-08-22T01:46:25.663Z,47.08
2022-08-22T01:51:25.556Z,47.08
2022-08-22T01:56:25.527Z,47.24
2022-08-22T02:01:25.509Z,47.08
2022-08-22T02:06:25.381Z,47.34
2022-08-22T02:11:25.304Z,47.10
2022-08-22T02:16:25.211Z,47.37
2022-08-22T02:21:25.159Z,47.18
2022-08-22T02:26:25.103Z,47.26
2022-08-22T02:31:25.038Z,47.50
2022-08-22T02:36:24.969Z,47.66
2022-08-22T02:41:24.911Z,47.66
2022-08-22T02:46:24.843Z,47.77
2022-08-22T02:51:24.775Z,48.04
2022-08-22T02:56:24.696Z,48.04
2022-08-22T03:01:24.674Z,48.04
2022-08-22T03:06:24.603Z,48.21
2022-08-22T03:11:24.516Z,48.51
2022-08-22T03:16:24.480Z,48.32
2022-08-22T03:21:24.438Z,48.68
2022-08-22T03:26:24.317Z,48.77
2022-08-22T03:31:24.223Z,49.05
2022-08-22T03:36:24.187Z,49.13
2022-08-22T03:41:24.117Z,49.19
2022-08-22T03:46:24.040Z,49.48
2022-08-22T03:51:23.973Z,49.80
2022-08-22T03:56:23.912Z,49.98
2022-08-22T04:01:23.854Z,49.86
2022-08-22T04:06:23.780Z,50.10
2022-08-22T04:11:23.703Z,50.34
2022-08-22T04:16:44.244Z,50.13
2022-08-22T04:21:36.473Z,50.16
2022-08-22T04:26:36.406Z,50.58
2022-08-22T04:31:37.083Z,50.46
2022-08-22T04:36:36.283Z,50.52
2022-08-22T04:41:36.184Z,50.37
2022-08-22T04:46:37.109Z,50.37
2022-08-22T04:51:36.112Z,50.58
2022-08-22T04:56:36.112Z,50.25
2022-08-22T05:01:36.068Z,50.22
2022-08-22T05:06:35.895Z,50.19
2022-08-22T05:11:35.812Z,50.19
2022-08-22T05:16:35.843Z,50.55
2022-08-22T05:21:35.723Z,50.25
2022-08-22T05:26:35.620Z,50.34
2022-08-22T05:31:35.573Z,50.19
2022-08-22T05:36:35.485Z,49.92
2022-08-22T05:41:35.414Z,49.65
2022-08-22T05:46:35.461Z,49.42
2022-08-22T05:51:35.280Z,49.11
2022-08-22T05:56:35.220Z,48.88
2022-08-22T06:01:35.155Z,48.71
2022-08-22T06:06:35.144Z,48.46
2022-08-22T06:11:35.010Z,48.29
2022-08-22T06:16:34.958Z,47.85
2022-08-22T06:21:39.566Z,47.61
2022-08-22T06:26:34.813Z,47.53
2022-08-22T06:31:34.741Z,47.34
2022-08-22T06:36:34.671Z,47.13
2022-08-22T06:41:34.691Z,46.25
2022-08-22T06:46:34.641Z,44.64
2022-08-22T06:51:34.497Z,42.19
2022-08-22T06:56:55.455Z,39.76
2022-08-22T07:01:34.405Z,36.95
2022-08-22T07:06:34.300Z,34.39
2022-08-22T07:11:34.215Z,32.04
2022-08-22T07:16:34.179Z,30.23
2022-08-22T07:21:36.251Z,28.92
2022-08-22T07:26:34.019Z,27.84
2022-08-22T07:31:33.981Z,26.97
2022-08-22T07:36:33.945Z,26.51
2022-08-22T07:41:33.823Z,25.92
2022-08-22T07:46:33.803Z,25.62
2022-08-22T07:51:33.743Z,25.62
2022-08-22T07:56:33.632Z,25.61
2022-08-22T08:01:33.607Z,25.75
2022-08-22T08:06:33.538Z,25.50
2022-08-22T08:11:33.450Z,25.27
2022-08-22T08:16:33.412Z,25.18
2022-08-22T08:21:33.365Z,25.30
2022-08-22T08:26:33.296Z,25.24
2022-08-22T08:31:33.184Z,25.50
2022-08-22T08:36:33.156Z,25.84
2022-08-22T08:41:33.063Z,25.92
2022-08-22T08:46:33.005Z,26.02
2022-08-22T08:51:32.983Z,26.05
2022-08-22T08:56:32.915Z,26.12
2022-08-22T09:01:32.888Z,26.31
2022-08-22T09:06:32.735Z,26.20
2022-08-22T09:11:32.792Z,25.99
2022-08-22T09:16:32.640Z,26.03
2022-08-22T09:21:32.552Z,25.32
2022-08-22T09:26:32.498Z,24.84
2022-08-22T09:31:44.835Z,24.06
2022-08-22T09:36:33.633Z,23.20
2022-08-22T09:41:32.272Z,22.32
2022-08-22T09:46:36.876Z,21.48
2022-08-22T09:51:33.482Z,20.82
2022-08-22T09:56:32.110Z,20.18
2022-08-22T10:01:33.017Z,19.69
2022-08-22T10:06:31.977Z,19.32
2022-08-22T10:11:31.925Z,19.02
2022-08-22T10:16:31.852Z,18.60
2022-08-22T10:21:31.815Z,18.17
2022-08-22T10:26:35.259Z,17.83
2022-08-22T10:31:32.690Z,17.67
2022-08-22T10:36:31.609Z,17.45
2022-08-22T10:41:31.537Z,17.32
2022-08-22T10:46:31.484Z,17.19
2022-08-22T10:51:31.426Z,17.18
2022-08-22T10:56:31.359Z,17.20
2022-08-22T11:01:38.504Z,17.26
2022-08-22T11:06:32.353Z,17.33
2022-08-22T11:11:32.959Z,17.36
2022-08-22T11:16:31.141Z,17.36
2022-08-22T11:21:32.042Z,17.61
2022-08-22T11:26:35.874Z,18.01
2022-08-22T11:31:31.934Z,18.22
2022-08-22T11:36:31.114Z,18.36
2022-08-22T11:41:30.837Z,18.47
2022-08-22T11:46:30.843Z,18.50
2022-08-22T11:51:30.681Z,18.65
2022-08-22T11:56:30.604Z,18.97
2022-08-22T12:01:34.297Z,19.05
2022-08-22T12:06:30.489Z,19.37
2022-08-22T12:11:30.430Z,19.51
2022-08-22T12:16:30.371Z,19.66
2022-08-22T12:21:30.313Z,19.99
2022-08-22T12:26:30.251Z,20.18
2022-08-22T12:31:30.185Z,20.62
2022-08-22T12:36:30.133Z,21.09
2022-08-22T12:41:35.240Z,21.55
2022-08-22T12:46:31.008Z,21.90
2022-08-22T12:51:29.898Z,22.37
2022-08-22T12:56:29.905Z,22.42
2022-08-22T13:01:34.360Z,22.75
2022-08-22T13:06:29.733Z,23.26
2022-08-22T13:11:29.681Z,23.54
2022-08-22T13:16:29.620Z,23.51
2022-08-22T13:21:31.835Z,23.75
2022-08-22T13:26:32.909Z,23.82
2022-08-22T13:31:30.473Z,23.76
2022-08-22T13:36:29.367Z,23.80
2022-08-22T13:41:29.358Z,23.78
2022-08-22T13:46:29.272Z,24.01
2022-08-22T13:51:29.167Z,24.20
2022-08-22T13:56:29.139Z,24.21
2022-08-22T14:01:29.086Z,24.09
2022-08-22T14:06:35.453Z,24.33
2022-08-22T14:11:29.923Z,24.91
2022-08-22T14:16:28.858Z,25.32
2022-08-22T14:21:28.779Z,25.69
2022-08-22T14:26:36.658Z,26.05
2022-08-22T14:31:29.683Z,26.29
2022-08-22T14:36:28.613Z,26.59
2022-08-22T14:41:28.544Z,26.81
2022-08-22T14:46:29.498Z,27.21
2022-08-22T14:51:28.416Z,27.49
2022-08-22T14:56:28.371Z,27.66
2022-08-22T15:01:29.923Z,27.93
2022-08-22T15:06:28.225Z,28.46
2022-08-22T15:11:28.161Z,28.94
2022-08-22T15:16:28.106Z,29.20
2022-08-22T15:21:28.019Z,29.51
2022-08-22T15:26:28.162Z,29.76
2022-08-22T15:31:27.882Z,29.84
2022-08-22T15:36:27.834Z,30.16
2022-08-22T15:41:31.352Z,30.23
2022-08-22T15:46:28.705Z,30.14
2022-08-22T15:51:27.640Z,30.47
2022-08-22T15:56:27.580Z,30.45
2022-08-22T16:01:27.568Z,30.62
2022-08-22T16:06:27.454Z,30.71
2022-08-22T16:11:32.284Z,30.67
2022-08-22T16:16:28.359Z,30.82
2022-08-22T16:21:27.255Z,31.03
2022-08-22T16:26:27.199Z,31.24
2022-08-22T16:31:27.137Z,31.56
2022-08-22T16:36:27.079Z,31.70
2022-08-22T16:41:26.993Z,31.73
2022-08-22T16:46:26.907Z,31.92
2022-08-22T16:51:27.958Z,32.21
2022-08-22T16:56:27.020Z,32.51
2022-08-22T17:01:26.822Z,32.51
2022-08-22T17:06:27.379Z,32.79
2022-08-22T17:11:26.603Z,33.10
2022-08-22T17:16:26.548Z,33.22
2022-08-22T17:21:26.493Z,33.36
2022-08-22T17:26:26.431Z,33.60
2022-08-22T17:31:26.354Z,33.76
2022-08-22T17:36:27.360Z,34.00
2022-08-22T17:41:26.223Z,34.19
2022-08-22T17:46:26.147Z,34.33
2022-08-22T17:51:28.662Z,34.53
2022-08-22T17:56:26.052Z,34.67
2022-08-22T18:01:26.023Z,34.90
2022-08-22T18:06:25.908Z,34.96
2022-08-22T18:11:25.817Z,35.13
2022-08-22T18:16:27.036Z,35.25
2022-08-22T18:21:25.680Z,35.34
2022-08-22T18:26:25.681Z,35.58
2022-08-22T18:31:25.553Z,35.76
2022-08-22T18:36:25.660Z,35.88
2022-08-22T18:41:26.090Z,36.03
2022-08-22T18:46:25.347Z,36.15
2022-08-22T18:51:25.323Z,36.28
2022-08-22T18:56:25.219Z,36.37
2022-08-22T19:01:25.226Z,36.40
2022-08-22T19:06:28.945Z,36.69
2022-08-22T19:11:25.036Z,36.40
2022-08-22T19:16:24.992Z,36.95
2022-08-22T19:21:24.904Z,36.82
2022-08-22T19:26:24.845Z,36.85
2022-08-22T19:31:24.784Z,36.91
2022-08-22T19:36:24.714Z,37.31
2022-08-22T19:41:24.684Z,37.47
2022-08-22T19:46:24.611Z,37.74
2022-08-22T19:51:24.520Z,37.87
2022-08-22T19:56:24.473Z,37.98
2022-08-22T20:01:24.475Z,38.11
2022-08-22T20:06:42.862Z,38.25
2022-08-22T20:11:25.249Z,38.29
2022-08-22T20:16:24.195Z,38.42
2022-08-22T20:21:24.148Z,38.64
2022-08-22T20:26:24.097Z,38.78
2022-08-22T20:31:23.988Z,38.96
2022-08-22T20:36:28.402Z,38.96
2022-08-22T20:41:24.928Z,39.10
2022-08-22T20:46:24.029Z,39.21
2022-08-22T20:51:23.712Z,39.32
2022-08-22T20:56:23.694Z,39.32
2022-08-22T21:01:23.675Z,39.73
2022-08-22T21:06:23.530Z,39.84
2022-08-22T21:11:23.472Z,40.03
2022-08-22T21:16:25.201Z,40.22
2022-08-22T21:21:23.318Z,40.37
2022-08-22T21:26:23.258Z,40.60
2022-08-22T21:31:23.205Z,41.04
2022-08-22T21:36:23.140Z,41.24
2022-08-22T21:41:23.050Z,41.48
2022-08-22T21:46:23.048Z,42.06
2022-08-22T21:51:22.949Z,42.36
2022-08-22T21:56:22.919Z,42.70
2022-08-22T22:01:24.878Z,42.92
2022-08-22T22:06:22.740Z,42.70
2022-08-22T22:11:22.665Z,43.05
2022-08-22T22:16:22.587Z,43.09
2022-08-22T22:21:22.547Z,43.22
2022-08-22T22:26:22.474Z,43.62
2022-08-22T22:31:22.412Z,43.67
2022-08-22T22:36:22.699Z,43.76
2022-08-22T22:41:23.015Z,44.13
2022-08-22T22:46:22.196Z,44.03
2022-08-22T22:51:22.156Z,44.08
2022-08-22T22:56:22.051Z,44.26
2022-08-22T23:01:22.075Z,44.36
2022-08-22T23:06:22.052Z,44.45
2022-08-22T23:11:21.884Z,44.64
2022-08-22T23:16:21.837Z,44.73
2022-08-22T23:21:21.758Z,44.92
2022-08-22T23:26:21.646Z,44.97
2022-08-22T23:31:21.607Z,44.97
2022-08-22T23:36:21.548Z,45.26
2022-08-22T23:41:21.452Z,45.41
2022-08-22T23:46:21.394Z,44.97
2022-08-22T23:51:23.040Z,45.07
2022-08-22T23:56:21.245Z,45.46
